sensor_id;sensor_type;location;lat;lon;timestamp;temperature;humidity
70366;DHT22;57787;48.216;12.396;2023-04-06T00:00:58;-2.60;77.40
70366;DHT22;57787;48.216;12.396;2023-04-06T00:03:25;-2.60;77.20
70366;DHT22;57787;48.216;12.396;2023-04-06T00:05:51;-2.60;77.50
70366;DHT22;57787;48.216;12.396;2023-04-06T00:08:19;-2.70;77.40
70366;DHT22;57787;48.216;12.396;2023-04-06T00:10:48;-2.70;77.20
70366;DHT22;57787;48.216;12.396;2023-04-06T00:13:14;-2.80;77.80
70366;DHT22;57787;48.216;12.396;2023-04-06T00:15:41;-2.70;78.30
70366;DHT22;57787;48.216;12.396;2023-04-06T00:18:08;-2.80;78.50
70366;DHT22;57787;48.216;12.396;2023-04-06T00:20:35;-2.80;78.40
70366;DHT22;57787;48.216;12.396;2023-04-06T00:23:02;-2.80;78.80
70366;DHT22;57787;48.216;12.396;2023-04-06T00:25:29;-2.90;78.60
70366;DHT22;57787;48.216;12.396;2023-04-06T00:27:56;-2.90;78.70
70366;DHT22;57787;48.216;12.396;2023-04-06T00:30:23;-2.90;78.80
70366;DHT22;57787;48.216;12.396;2023-04-06T00:32:51;-2.90;78.70
70366;DHT22;57787;48.216;12.396;2023-04-06T00:35:18;-2.90;78.70
70366;DHT22;57787;48.216;12.396;2023-04-06T00:37:46;-3.00;78.30
70366;DHT22;57787;48.216;12.396;2023-04-06T00:40:14;-3.00;78.30
70366;DHT22;57787;48.216;12.396;2023-04-06T00:42:41;-3.00;78.90
70366;DHT22;57787;48.216;12.396;2023-04-06T00:45:09;-3.00;78.60
70366;DHT22;57787;48.216;12.396;2023-04-06T00:47:38;-3.00;78.50
70366;DHT22;57787;48.216;12.396;2023-04-06T00:50:05;-3.10;79.20
70366;DHT22;57787;48.216;12.396;2023-04-06T00:52:33;-3.10;78.40
70366;DHT22;57787;48.216;12.396;2023-04-06T00:55:00;-3.10;78.50
70366;DHT22;57787;48.216;12.396;2023-04-06T00:57:27;-3.10;78.60
70366;DHT22;57787;48.216;12.396;2023-04-06T00:59:54;-3.10;79.30
70366;DHT22;57787;48.216;12.396;2023-04-06T01:02:20;-3.10;79.30
70366;DHT22;57787;48.216;12.396;2023-04-06T01:04:48;-3.20;79.10
70366;DHT22;57787;48.216;12.396;2023-04-06T01:07:14;-3.20;79.50
70366;DHT22;57787;48.216;12.396;2023-04-06T01:09:44;-3.20;79.50
70366;DHT22;57787;48.216;12.396;2023-04-06T01:12:12;-3.20;79.40
70366;DHT22;57787;48.216;12.396;2023-04-06T01:14:39;-3.20;79.20
70366;DHT22;57787;48.216;12.396;2023-04-06T01:17:06;-3.30;79.20
70366;DHT22;57787;48.216;12.396;2023-04-06T01:19:32;-3.30;79.40
70366;DHT22;57787;48.216;12.396;2023-04-06T01:21:59;-3.30;79.80
70366;DHT22;57787;48.216;12.396;2023-04-06T01:24:26;-3.30;79.50
70366;DHT22;57787;48.216;12.396;2023-04-06T01:26:53;-3.40;79.20
70366;DHT22;57787;48.216;12.396;2023-04-06T01:29:19;-3.40;79.50
70366;DHT22;57787;48.216;12.396;2023-04-06T01:31:46;-3.40;79.80
70366;DHT22;57787;48.216;12.396;2023-04-06T01:34:14;-3.50;80.30
70366;DHT22;57787;48.216;12.396;2023-04-06T01:36:41;-3.50;80.70
70366;DHT22;57787;48.216;12.396;2023-04-06T01:39:08;-3.50;80.50
70366;DHT22;57787;48.216;12.396;2023-04-06T01:41:35;-3.50;80.40
70366;DHT22;57787;48.216;12.396;2023-04-06T01:44:02;-3.50;81.70
70366;DHT22;57787;48.216;12.396;2023-04-06T01:46:29;-3.50;81.20
70366;DHT22;57787;48.216;12.396;2023-04-06T01:48:56;-3.60;81.10
70366;DHT22;57787;48.216;12.396;2023-04-06T01:51:23;-3.60;82.00
70366;DHT22;57787;48.216;12.396;2023-04-06T01:53:51;-3.60;81.30
70366;DHT22;57787;48.216;12.396;2023-04-06T01:56:18;-3.60;81.50
70366;DHT22;57787;48.216;12.396;2023-04-06T01:58:44;-3.70;81.20
70366;DHT22;57787;48.216;12.396;2023-04-06T02:01:11;-3.60;81.40
70366;DHT22;57787;48.216;12.396;2023-04-06T02:03:38;-3.60;81.80
70366;DHT22;57787;48.216;12.396;2023-04-06T02:06:05;-3.70;81.80
70366;DHT22;57787;48.216;12.396;2023-04-06T02:08:32;-3.70;81.70
70366;DHT22;57787;48.216;12.396;2023-04-06T02:10:59;-3.70;81.80
70366;DHT22;57787;48.216;12.396;2023-04-06T02:13:26;-3.80;81.70
70366;DHT22;57787;48.216;12.396;2023-04-06T02:15:53;-3.80;81.60
70366;DHT22;57787;48.216;12.396;2023-04-06T02:18:19;-3.80;82.00
70366;DHT22;57787;48.216;12.396;2023-04-06T02:20:46;-3.80;81.80
70366;DHT22;57787;48.216;12.396;2023-04-06T02:23:13;-3.80;82.30
70366;DHT22;57787;48.216;12.396;2023-04-06T02:25:40;-3.80;82.60
70366;DHT22;57787;48.216;12.396;2023-04-06T02:28:07;-3.90;82.00
70366;DHT22;57787;48.216;12.396;2023-04-06T02:30:34;-3.90;82.40
70366;DHT22;57787;48.216;12.396;2023-04-06T02:33:01;-3.80;82.60
70366;DHT22;57787;48.216;12.396;2023-04-06T02:35:29;-3.90;83.30
70366;DHT22;57787;48.216;12.396;2023-04-06T02:37:56;-3.90;82.60
70366;DHT22;57787;48.216;12.396;2023-04-06T02:40:22;-3.90;82.60
70366;DHT22;57787;48.216;12.396;2023-04-06T02:42:49;-3.90;82.80
70366;DHT22;57787;48.216;12.396;2023-04-06T02:45:17;-3.90;82.90
70366;DHT22;57787;48.216;12.396;2023-04-06T02:47:44;-3.90;82.70
70366;DHT22;57787;48.216;12.396;2023-04-06T02:50:11;-3.90;83.20
70366;DHT22;57787;48.216;12.396;2023-04-06T02:52:38;-4.00;82.70
70366;DHT22;57787;48.216;12.396;2023-04-06T02:55:06;-4.00;82.50
70366;DHT22;57787;48.216;12.396;2023-04-06T02:57:34;-4.00;82.80
70366;DHT22;57787;48.216;12.396;2023-04-06T03:00:01;-4.00;83.10
70366;DHT22;57787;48.216;12.396;2023-04-06T03:02:28;-4.00;83.40
70366;DHT22;57787;48.216;12.396;2023-04-06T03:04:55;-4.10;82.90
70366;DHT22;57787;48.216;12.396;2023-04-06T03:07:22;-4.10;82.70
70366;DHT22;57787;48.216;12.396;2023-04-06T03:09:50;-4.10;82.70
70366;DHT22;57787;48.216;12.396;2023-04-06T03:12:17;-4.10;82.60
70366;DHT22;57787;48.216;12.396;2023-04-06T03:14:44;-4.10;82.60
70366;DHT22;57787;48.216;12.396;2023-04-06T03:17:11;-4.10;82.40
70366;DHT22;57787;48.216;12.396;2023-04-06T03:19:38;-4.10;82.50
70366;DHT22;57787;48.216;12.396;2023-04-06T03:22:05;-4.10;82.50
70366;DHT22;57787;48.216;12.396;2023-04-06T03:24:31;-4.10;82.70
70366;DHT22;57787;48.216;12.396;2023-04-06T03:26:59;-4.20;83.00
70366;DHT22;57787;48.216;12.396;2023-04-06T03:29:26;-4.20;82.70
70366;DHT22;57787;48.216;12.396;2023-04-06T03:31:54;-4.20;82.50
70366;DHT22;57787;48.216;12.396;2023-04-06T03:34:21;-4.20;82.40
70366;DHT22;57787;48.216;12.396;2023-04-06T03:36:48;-4.20;82.90
70366;DHT22;57787;48.216;12.396;2023-04-06T03:39:32;-4.20;82.60
70366;DHT22;57787;48.216;12.396;2023-04-06T03:41:59;-4.20;82.60
70366;DHT22;57787;48.216;12.396;2023-04-06T03:44:26;-4.30;82.60
70366;DHT22;57787;48.216;12.396;2023-04-06T03:46:53;-4.30;82.40
70366;DHT22;57787;48.216;12.396;2023-04-06T03:49:20;-4.30;82.80
70366;DHT22;57787;48.216;12.396;2023-04-06T03:51:47;-4.30;82.60
70366;DHT22;57787;48.216;12.396;2023-04-06T03:54:14;-4.30;82.80
70366;DHT22;57787;48.216;12.396;2023-04-06T03:56:41;-4.30;82.70
70366;DHT22;57787;48.216;12.396;2023-04-06T03:59:08;-4.30;82.60
70366;DHT22;57787;48.216;12.396;2023-04-06T04:01:37;-4.30;82.70
70366;DHT22;57787;48.216;12.396;2023-04-06T04:04:04;-4.40;82.70
70366;DHT22;57787;48.216;12.396;2023-04-06T04:06:31;-4.40;82.60
70366;DHT22;57787;48.216;12.396;2023-04-06T04:08:57;-4.40;82.60
70366;DHT22;57787;48.216;12.396;2023-04-06T04:11:24;-4.40;82.60
70366;DHT22;57787;48.216;12.396;2023-04-06T04:13:51;-4.50;82.80
70366;DHT22;57787;48.216;12.396;2023-04-06T04:16:18;-4.50;82.80
70366;DHT22;57787;48.216;12.396;2023-04-06T04:18:45;-4.50;82.60
70366;DHT22;57787;48.216;12.396;2023-04-06T04:21:13;-4.50;82.60
70366;DHT22;57787;48.216;12.396;2023-04-06T04:24:02;-4.50;82.90
70366;DHT22;57787;48.216;12.396;2023-04-06T04:26:29;-4.50;82.80
70366;DHT22;57787;48.216;12.396;2023-04-06T04:28:56;-4.60;82.90
70366;DHT22;57787;48.216;12.396;2023-04-06T04:31:23;-4.50;83.00
70366;DHT22;57787;48.216;12.396;2023-04-06T04:33:50;-4.60;83.10
70366;DHT22;57787;48.216;12.396;2023-04-06T04:36:17;-4.60;83.10
70366;DHT22;57787;48.216;12.396;2023-04-06T04:38:46;-4.60;83.30
70366;DHT22;57787;48.216;12.396;2023-04-06T04:41:14;-4.60;83.30
70366;DHT22;57787;48.216;12.396;2023-04-06T04:43:41;-4.60;83.40
70366;DHT22;57787;48.216;12.396;2023-04-06T04:46:08;-4.60;83.30
70366;DHT22;57787;48.216;12.396;2023-04-06T04:48:35;-4.50;83.60
70366;DHT22;57787;48.216;12.396;2023-04-06T04:51:03;-4.60;84.10
70366;DHT22;57787;48.216;12.396;2023-04-06T04:53:32;-4.50;83.70
70366;DHT22;57787;48.216;12.396;2023-04-06T04:55:58;-4.50;83.70
70366;DHT22;57787;48.216;12.396;2023-04-06T04:58:25;-4.50;83.90
70366;DHT22;57787;48.216;12.396;2023-04-06T05:00:52;-4.50;83.90
70366;DHT22;57787;48.216;12.396;2023-04-06T05:03:23;-4.40;83.90
70366;DHT22;57787;48.216;12.396;2023-04-06T05:05:51;-4.40;84.30
70366;DHT22;57787;48.216;12.396;2023-04-06T05:08:18;-4.30;84.40
70366;DHT22;57787;48.216;12.396;2023-04-06T05:10:45;-4.30;84.50
70366;DHT22;57787;48.216;12.396;2023-04-06T05:13:13;-4.20;84.50
70366;DHT22;57787;48.216;12.396;2023-04-06T05:15:40;-4.20;84.40
70366;DHT22;57787;48.216;12.396;2023-04-06T05:18:07;-4.20;84.60
70366;DHT22;57787;48.216;12.396;2023-04-06T05:20:35;-4.10;84.50
70366;DHT22;57787;48.216;12.396;2023-04-06T05:23:02;-4.10;84.50
70366;DHT22;57787;48.216;12.396;2023-04-06T05:25:28;-4.00;84.40
70366;DHT22;57787;48.216;12.396;2023-04-06T05:27:55;-4.00;84.60
70366;DHT22;57787;48.216;12.396;2023-04-06T05:30:23;-3.90;84.60
70366;DHT22;57787;48.216;12.396;2023-04-06T05:32:50;-3.90;84.70
70366;DHT22;57787;48.216;12.396;2023-04-06T05:35:17;-3.80;84.70
70366;DHT22;57787;48.216;12.396;2023-04-06T05:37:43;-3.70;85.00
70366;DHT22;57787;48.216;12.396;2023-04-06T05:40:10;-3.70;85.30
70366;DHT22;57787;48.216;12.396;2023-04-06T05:42:38;-3.60;85.40
70366;DHT22;57787;48.216;12.396;2023-04-06T05:45:08;-3.60;85.30
70366;DHT22;57787;48.216;12.396;2023-04-06T05:47:35;-3.50;85.30
70366;DHT22;57787;48.216;12.396;2023-04-06T05:50:05;-3.40;85.50
70366;DHT22;57787;48.216;12.396;2023-04-06T05:52:32;-3.40;85.60
70366;DHT22;57787;48.216;12.396;2023-04-06T05:54:59;-3.20;85.60
70366;DHT22;57787;48.216;12.396;2023-04-06T05:57:26;-3.20;85.80
70366;DHT22;57787;48.216;12.396;2023-04-06T05:59:53;-3.10;85.90
70366;DHT22;57787;48.216;12.396;2023-04-06T06:02:20;-3.00;86.50
70366;DHT22;57787;48.216;12.396;2023-04-06T06:04:47;-2.90;86.70
70366;DHT22;57787;48.216;12.396;2023-04-06T06:07:14;-2.80;86.70
70366;DHT22;57787;48.216;12.396;2023-04-06T06:09:41;-2.70;86.70
70366;DHT22;57787;48.216;12.396;2023-04-06T06:12:08;-2.60;86.90
70366;DHT22;57787;48.216;12.396;2023-04-06T06:14:36;-2.50;87.00
70366;DHT22;57787;48.216;12.396;2023-04-06T06:17:03;-2.40;87.10
70366;DHT22;57787;48.216;12.396;2023-04-06T06:19:30;-2.30;87.30
70366;DHT22;57787;48.216;12.396;2023-04-06T06:21:57;-2.10;87.40
70366;DHT22;57787;48.216;12.396;2023-04-06T06:24:25;-2.00;87.50
70366;DHT22;57787;48.216;12.396;2023-04-06T06:26:51;-1.80;87.40
70366;DHT22;57787;48.216;12.396;2023-04-06T06:29:18;-1.60;87.50
70366;DHT22;57787;48.216;12.396;2023-04-06T06:31:45;-1.50;87.70
70366;DHT22;57787;48.216;12.396;2023-04-06T06:34:12;-1.30;87.70
70366;DHT22;57787;48.216;12.396;2023-04-06T06:36:39;-1.00;87.70
70366;DHT22;57787;48.216;12.396;2023-04-06T06:39:11;-0.80;87.60
70366;DHT22;57787;48.216;12.396;2023-04-06T06:41:38;-0.60;87.40
70366;DHT22;57787;48.216;12.396;2023-04-06T06:44:05;-0.30;86.70
70366;DHT22;57787;48.216;12.396;2023-04-06T06:46:35;-0.10;85.00
70366;DHT22;57787;48.216;12.396;2023-04-06T06:49:01;0.10;83.30
70366;DHT22;57787;48.216;12.396;2023-04-06T06:51:29;0.30;81.40
70366;DHT22;57787;48.216;12.396;2023-04-06T06:53:56;0.60;80.50
70366;DHT22;57787;48.216;12.396;2023-04-06T06:56:23;0.80;78.80
70366;DHT22;57787;48.216;12.396;2023-04-06T06:58:50;1.10;78.00
70366;DHT22;57787;48.216;12.396;2023-04-06T07:01:17;1.30;77.70
70366;DHT22;57787;48.216;12.396;2023-04-06T07:03:44;1.60;76.50
70366;DHT22;57787;48.216;12.396;2023-04-06T07:06:11;1.80;76.60
70366;DHT22;57787;48.216;12.396;2023-04-06T07:08:38;2.00;75.00
70366;DHT22;57787;48.216;12.396;2023-04-06T07:11:05;2.30;74.40
70366;DHT22;57787;48.216;12.396;2023-04-06T07:13:32;2.50;73.60
70366;DHT22;57787;48.216;12.396;2023-04-06T07:15:58;2.70;72.30
70366;DHT22;57787;48.216;12.396;2023-04-06T07:18:26;2.90;71.80
70366;DHT22;57787;48.216;12.396;2023-04-06T07:20:52;3.10;71.40
70366;DHT22;57787;48.216;12.396;2023-04-06T07:23:19;3.30;69.30
70366;DHT22;57787;48.216;12.396;2023-04-06T07:25:47;3.50;68.60
70366;DHT22;57787;48.216;12.396;2023-04-06T07:28:13;3.80;68.30
70366;DHT22;57787;48.216;12.396;2023-04-06T07:30:40;4.00;67.40
70366;DHT22;57787;48.216;12.396;2023-04-06T07:33:07;4.20;66.30
70366;DHT22;57787;48.216;12.396;2023-04-06T07:35:34;4.40;66.30
70366;DHT22;57787;48.216;12.396;2023-04-06T07:38:01;4.60;65.20
70366;DHT22;57787;48.216;12.396;2023-04-06T07:40:28;4.80;63.10
70366;DHT22;57787;48.216;12.396;2023-04-06T07:42:55;5.00;63.70
70366;DHT22;57787;48.216;12.396;2023-04-06T07:45:23;5.20;62.10
70366;DHT22;57787;48.216;12.396;2023-04-06T07:47:50;5.40;61.00
70366;DHT22;57787;48.216;12.396;2023-04-06T07:50:17;5.60;62.60
70366;DHT22;57787;48.216;12.396;2023-04-06T07:52:43;5.80;61.60
70366;DHT22;57787;48.216;12.396;2023-04-06T07:55:11;6.00;61.90
70366;DHT22;57787;48.216;12.396;2023-04-06T07:57:38;6.20;58.60
70366;DHT22;57787;48.216;12.396;2023-04-06T08:00:05;6.30;53.80
70366;DHT22;57787;48.216;12.396;2023-04-06T08:02:32;6.30;52.80
70366;DHT22;57787;48.216;12.396;2023-04-06T08:04:58;6.50;53.70
70366;DHT22;57787;48.216;12.396;2023-04-06T08:07:26;6.60;51.60
70366;DHT22;57787;48.216;12.396;2023-04-06T08:09:56;6.70;52.40
70366;DHT22;57787;48.216;12.396;2023-04-06T08:12:27;6.80;53.40
70366;DHT22;57787;48.216;12.396;2023-04-06T08:14:54;7.00;53.40
70366;DHT22;57787;48.216;12.396;2023-04-06T08:17:21;7.10;51.80
70366;DHT22;57787;48.216;12.396;2023-04-06T08:19:48;7.30;50.70
70366;DHT22;57787;48.216;12.396;2023-04-06T08:22:15;7.50;49.80
70366;DHT22;57787;48.216;12.396;2023-04-06T08:24:42;7.60;49.70
70366;DHT22;57787;48.216;12.396;2023-04-06T08:27:11;7.60;45.00
70366;DHT22;57787;48.216;12.396;2023-04-06T08:29:37;7.70;45.60
70366;DHT22;57787;48.216;12.396;2023-04-06T08:32:05;7.80;46.00
70366;DHT22;57787;48.216;12.396;2023-04-06T08:34:32;8.00;47.40
70366;DHT22;57787;48.216;12.396;2023-04-06T08:37:00;8.10;43.60
70366;DHT22;57787;48.216;12.396;2023-04-06T08:39:27;8.10;43.70
70366;DHT22;57787;48.216;12.396;2023-04-06T08:41:54;8.30;43.80
70366;DHT22;57787;48.216;12.396;2023-04-06T08:44:26;8.30;43.80
70366;DHT22;57787;48.216;12.396;2023-04-06T08:46:53;8.50;43.00
70366;DHT22;57787;48.216;12.396;2023-04-06T08:49:20;8.60;43.80
70366;DHT22;57787;48.216;12.396;2023-04-06T08:51:48;8.60;42.30
70366;DHT22;57787;48.216;12.396;2023-04-06T08:54:15;8.80;44.00
70366;DHT22;57787;48.216;12.396;2023-04-06T08:56:42;8.90;43.70
70366;DHT22;57787;48.216;12.396;2023-04-06T08:59:09;9.00;41.80
70366;DHT22;57787;48.216;12.396;2023-04-06T09:01:39;9.10;42.10
70366;DHT22;57787;48.216;12.396;2023-04-06T09:04:08;9.30;44.80
70366;DHT22;57787;48.216;12.396;2023-04-06T09:06:39;9.30;42.90
70366;DHT22;57787;48.216;12.396;2023-04-06T09:09:07;9.40;42.00
70366;DHT22;57787;48.216;12.396;2023-04-06T09:11:44;9.40;40.00
70366;DHT22;57787;48.216;12.396;2023-04-06T09:14:10;9.60;42.70
70366;DHT22;57787;48.216;12.396;2023-04-06T09:16:41;9.70;42.30
70366;DHT22;57787;48.216;12.396;2023-04-06T09:19:08;9.80;39.00
70366;DHT22;57787;48.216;12.396;2023-04-06T09:21:35;9.80;39.10
70366;DHT22;57787;48.216;12.396;2023-04-06T09:24:04;9.80;38.50
70366;DHT22;57787;48.216;12.396;2023-04-06T09:26:31;9.90;39.00
70366;DHT22;57787;48.216;12.396;2023-04-06T09:29:00;10.10;41.60
70366;DHT22;57787;48.216;12.396;2023-04-06T09:31:29;10.10;37.30
70366;DHT22;57787;48.216;12.396;2023-04-06T09:33:56;10.20;38.40
70366;DHT22;57787;48.216;12.396;2023-04-06T09:36:33;10.30;39.60
70366;DHT22;57787;48.216;12.396;2023-04-06T09:39:01;10.40;39.20
70366;DHT22;57787;48.216;12.396;2023-04-06T09:41:32;10.50;38.40
70366;DHT22;57787;48.216;12.396;2023-04-06T09:44:07;10.40;37.20
70366;DHT22;57787;48.216;12.396;2023-04-06T09:46:36;10.60;37.80
70366;DHT22;57787;48.216;12.396;2023-04-06T09:49:23;10.60;36.70
70366;DHT22;57787;48.216;12.396;2023-04-06T09:51:54;10.70;37.80
70366;DHT22;57787;48.216;12.396;2023-04-06T09:54:23;10.80;38.00
70366;DHT22;57787;48.216;12.396;2023-04-06T09:59:26;11.10;38.30
70366;DHT22;57787;48.216;12.396;2023-04-06T10:01:57;11.10;38.60
70366;DHT22;57787;48.216;12.396;2023-04-06T10:06:52;11.30;37.40
70366;DHT22;57787;48.216;12.396;2023-04-06T10:09:20;11.40;38.50
70366;DHT22;57787;48.216;12.396;2023-04-06T10:11:48;11.40;34.90
70366;DHT22;57787;48.216;12.396;2023-04-06T10:14:15;11.50;36.20
70366;DHT22;57787;48.216;12.396;2023-04-06T10:16:43;11.50;37.30
70366;DHT22;57787;48.216;12.396;2023-04-06T10:19:12;11.50;33.40
70366;DHT22;57787;48.216;12.396;2023-04-06T10:21:40;11.50;36.60
70366;DHT22;57787;48.216;12.396;2023-04-06T10:24:08;11.50;34.70
70366;DHT22;57787;48.216;12.396;2023-04-06T10:26:40;11.40;33.70
70366;DHT22;57787;48.216;12.396;2023-04-06T10:29:06;11.40;36.40
70366;DHT22;57787;48.216;12.396;2023-04-06T10:31:39;11.40;36.00
70366;DHT22;57787;48.216;12.396;2023-04-06T10:34:06;11.60;37.90
70366;DHT22;57787;48.216;12.396;2023-04-06T10:36:34;11.70;37.50
70366;DHT22;57787;48.216;12.396;2023-04-06T10:39:02;11.80;35.60
70366;DHT22;57787;48.216;12.396;2023-04-06T10:41:43;11.80;35.10
70366;DHT22;57787;48.216;12.396;2023-04-06T10:44:20;11.70;34.00
70366;DHT22;57787;48.216;12.396;2023-04-06T10:46:55;11.40;34.00
70366;DHT22;57787;48.216;12.396;2023-04-06T10:49:22;11.30;33.90
70366;DHT22;57787;48.216;12.396;2023-04-06T10:51:54;11.20;34.20
70366;DHT22;57787;48.216;12.396;2023-04-06T10:54:21;11.10;34.90
70366;DHT22;57787;48.216;12.396;2023-04-06T10:56:49;11.00;34.00
70366;DHT22;57787;48.216;12.396;2023-04-06T10:59:22;11.10;34.10
70366;DHT22;57787;48.216;12.396;2023-04-06T11:01:50;11.30;36.80
70366;DHT22;57787;48.216;12.396;2023-04-06T11:04:17;11.30;35.00
70366;DHT22;57787;48.216;12.396;2023-04-06T11:06:46;11.20;34.90
70366;DHT22;57787;48.216;12.396;2023-04-06T11:09:27;11.30;35.10
70366;DHT22;57787;48.216;12.396;2023-04-06T11:11:55;11.40;34.60
70366;DHT22;57787;48.216;12.396;2023-04-06T11:14:23;11.60;35.20
70366;DHT22;57787;48.216;12.396;2023-04-06T11:16:50;11.50;33.90
70366;DHT22;57787;48.216;12.396;2023-04-06T11:19:17;11.50;34.20
70366;DHT22;57787;48.216;12.396;2023-04-06T11:21:48;11.60;35.50
70366;DHT22;57787;48.216;12.396;2023-04-06T11:24:16;11.70;34.00
70366;DHT22;57787;48.216;12.396;2023-04-06T11:26:44;11.70;34.40
70366;DHT22;57787;48.216;12.396;2023-04-06T11:29:12;11.80;35.60
70366;DHT22;57787;48.216;12.396;2023-04-06T11:31:39;11.80;34.90
70366;DHT22;57787;48.216;12.396;2023-04-06T11:34:10;11.90;35.10
70366;DHT22;57787;48.216;12.396;2023-04-06T11:36:41;12.00;35.00
70366;DHT22;57787;48.216;12.396;2023-04-06T11:39:08;12.10;34.90
70366;DHT22;57787;48.216;12.396;2023-04-06T11:41:35;12.00;32.90
70366;DHT22;57787;48.216;12.396;2023-04-06T11:44:02;12.10;34.20
70366;DHT22;57787;48.216;12.396;2023-04-06T11:46:31;12.10;35.50
70366;DHT22;57787;48.216;12.396;2023-04-06T11:49:02;12.20;33.90
70366;DHT22;57787;48.216;12.396;2023-04-06T11:51:28;12.20;33.80
70366;DHT22;57787;48.216;12.396;2023-04-06T11:53:56;12.20;34.80
70366;DHT22;57787;48.216;12.396;2023-04-06T11:56:32;12.20;33.30
70366;DHT22;57787;48.216;12.396;2023-04-06T11:58:58;12.20;33.40
70366;DHT22;57787;48.216;12.396;2023-04-06T12:01:28;12.10;33.60
70366;DHT22;57787;48.216;12.396;2023-04-06T12:03:58;12.10;34.60
70366;DHT22;57787;48.216;12.396;2023-04-06T12:06:26;12.20;33.30
70366;DHT22;57787;48.216;12.396;2023-04-06T12:08:52;12.20;33.50
70366;DHT22;57787;48.216;12.396;2023-04-06T12:11:19;12.30;34.10
70366;DHT22;57787;48.216;12.396;2023-04-06T12:13:50;12.40;36.30
70366;DHT22;57787;48.216;12.396;2023-04-06T12:16:17;12.40;33.90
70366;DHT22;57787;48.216;12.396;2023-04-06T12:18:45;12.60;34.00
70366;DHT22;57787;48.216;12.396;2023-04-06T12:21:15;12.50;32.80
70366;DHT22;57787;48.216;12.396;2023-04-06T12:23:42;12.60;35.00
70366;DHT22;57787;48.216;12.396;2023-04-06T12:26:09;12.80;35.10
70366;DHT22;57787;48.216;12.396;2023-04-06T12:28:38;12.80;33.50
70366;DHT22;57787;48.216;12.396;2023-04-06T12:31:06;12.70;32.30
70366;DHT22;57787;48.216;12.396;2023-04-06T12:33:33;12.50;32.30
70366;DHT22;57787;48.216;12.396;2023-04-06T12:35:59;12.30;33.60
70366;DHT22;57787;48.216;12.396;2023-04-06T12:38:26;12.20;33.30
70366;DHT22;57787;48.216;12.396;2023-04-06T12:41:00;12.30;34.70
70366;DHT22;57787;48.216;12.396;2023-04-06T12:43:27;12.40;36.90
70366;DHT22;57787;48.216;12.396;2023-04-06T12:45:53;12.60;34.60
70366;DHT22;57787;48.216;12.396;2023-04-06T12:48:20;12.50;32.60
70366;DHT22;57787;48.216;12.396;2023-04-06T12:50:55;12.30;33.30
70366;DHT22;57787;48.216;12.396;2023-04-06T12:53:22;12.30;33.40
70366;DHT22;57787;48.216;12.396;2023-04-06T12:55:49;12.10;34.70
70366;DHT22;57787;48.216;12.396;2023-04-06T12:58:16;12.00;34.60
70366;DHT22;57787;48.216;12.396;2023-04-06T13:00:43;12.00;33.30
70366;DHT22;57787;48.216;12.396;2023-04-06T13:03:11;11.90;34.60
70366;DHT22;57787;48.216;12.396;2023-04-06T13:05:43;11.80;35.10
70366;DHT22;57787;48.216;12.396;2023-04-06T13:08:11;11.70;35.80
70366;DHT22;57787;48.216;12.396;2023-04-06T13:10:38;11.60;35.90
70366;DHT22;57787;48.216;12.396;2023-04-06T13:13:09;11.60;34.80
70366;DHT22;57787;48.216;12.396;2023-04-06T13:15:36;11.60;36.20
70366;DHT22;57787;48.216;12.396;2023-04-06T13:18:03;11.90;39.60
70366;DHT22;57787;48.216;12.396;2023-04-06T13:20:33;12.10;35.00
70366;DHT22;57787;48.216;12.396;2023-04-06T13:23:00;12.30;35.00
70366;DHT22;57787;48.216;12.396;2023-04-06T13:25:27;12.70;35.70
70366;DHT22;57787;48.216;12.396;2023-04-06T13:27:54;12.90;35.00
70366;DHT22;57787;48.216;12.396;2023-04-06T13:30:22;13.30;35.00
70366;DHT22;57787;48.216;12.396;2023-04-06T13:32:52;13.50;35.20
70366;DHT22;57787;48.216;12.396;2023-04-06T13:35:18;13.60;33.10
70366;DHT22;57787;48.216;12.396;2023-04-06T13:37:46;13.60;33.10
70366;DHT22;57787;48.216;12.396;2023-04-06T13:40:12;13.80;33.40
70366;DHT22;57787;48.216;12.396;2023-04-06T13:42:40;14.00;33.10
70366;DHT22;57787;48.216;12.396;2023-04-06T13:45:07;14.10;31.70
70366;DHT22;57787;48.216;12.396;2023-04-06T13:47:34;14.10;31.30
70366;DHT22;57787;48.216;12.396;2023-04-06T13:50:06;14.00;34.00
70366;DHT22;57787;48.216;12.396;2023-04-06T13:52:35;13.90;31.90
70366;DHT22;57787;48.216;12.396;2023-04-06T13:55:03;13.70;31.80
70366;DHT22;57787;48.216;12.396;2023-04-06T13:57:30;13.60;33.70
70366;DHT22;57787;48.216;12.396;2023-04-06T13:59:57;13.60;32.70
70366;DHT22;57787;48.216;12.396;2023-04-06T14:02:24;13.40;31.90
70366;DHT22;57787;48.216;12.396;2023-04-06T14:04:56;13.20;31.80
70366;DHT22;57787;48.216;12.396;2023-04-06T14:07:23;13.00;32.80
70366;DHT22;57787;48.216;12.396;2023-04-06T14:09:50;12.80;32.40
70366;DHT22;57787;48.216;12.396;2023-04-06T14:12:18;12.60;32.60
70366;DHT22;57787;48.216;12.396;2023-04-06T14:14:45;12.50;34.50
70366;DHT22;57787;48.216;12.396;2023-04-06T14:17:12;12.50;33.00
70366;DHT22;57787;48.216;12.396;2023-04-06T14:19:39;12.40;32.30
70366;DHT22;57787;48.216;12.396;2023-04-06T14:22:06;12.30;32.80
70366;DHT22;57787;48.216;12.396;2023-04-06T14:24:33;12.30;35.80
70366;DHT22;57787;48.216;12.396;2023-04-06T14:27:00;12.50;35.20
70366;DHT22;57787;48.216;12.396;2023-04-06T14:29:27;12.60;34.00
70366;DHT22;57787;48.216;12.396;2023-04-06T14:31:56;12.60;33.00
70366;DHT22;57787;48.216;12.396;2023-04-06T14:34:26;12.40;32.50
70366;DHT22;57787;48.216;12.396;2023-04-06T14:36:54;12.40;34.00
70366;DHT22;57787;48.216;12.396;2023-04-06T14:39:21;12.50;34.70
70366;DHT22;57787;48.216;12.396;2023-04-06T14:41:48;12.80;35.40
70366;DHT22;57787;48.216;12.396;2023-04-06T14:44:16;13.00;34.80
70366;DHT22;57787;48.216;12.396;2023-04-06T14:46:44;13.10;33.70
70366;DHT22;57787;48.216;12.396;2023-04-06T14:49:11;13.20;34.40
70366;DHT22;57787;48.216;12.396;2023-04-06T14:51:41;13.30;34.40
70366;DHT22;57787;48.216;12.396;2023-04-06T14:54:08;13.40;33.00
70366;DHT22;57787;48.216;12.396;2023-04-06T14:56:35;13.30;31.70
70366;DHT22;57787;48.216;12.396;2023-04-06T14:59:02;13.10;32.70
70366;DHT22;57787;48.216;12.396;2023-04-06T15:01:33;13.00;32.20
70366;DHT22;57787;48.216;12.396;2023-04-06T15:04:02;13.10;33.70
70366;DHT22;57787;48.216;12.396;2023-04-06T15:06:29;13.10;33.40
70366;DHT22;57787;48.216;12.396;2023-04-06T15:08:56;13.30;33.00
70366;DHT22;57787;48.216;12.396;2023-04-06T15:11:23;13.30;32.40
70366;DHT22;57787;48.216;12.396;2023-04-06T15:13:50;13.20;32.50
70366;DHT22;57787;48.216;12.396;2023-04-06T15:16:17;13.10;31.60
70366;DHT22;57787;48.216;12.396;2023-04-06T15:18:44;12.90;31.70
70366;DHT22;57787;48.216;12.396;2023-04-06T15:21:11;12.80;32.90
70366;DHT22;57787;48.216;12.396;2023-04-06T15:23:37;12.60;34.10
70366;DHT22;57787;48.216;12.396;2023-04-06T15:26:04;12.70;34.10